sensor_id;sensor_type;location;lat;lon;timestamp;temperature;humidity
45383;DHT22;42455;51.660;5.824;2023-03-05T00:00:47;7.3;86.0
45383;DHT22;42455;51.660;5.824;2023-03-05T00:05:55;7.2;86.0
45383;DHT22;42455;51.660;5.824;2023-03-05T00:11:01;7.2;86.5
45383;DHT22;42455;51.660;5.824;2023-03-05T00:16:08;7.2;86.5
45383;DHT22;42455;51.660;5.824;2023-03-05T00:21:18;7.2;86.5
45383;DHT22;42455;51.660;5.824;2023-03-05T00:26:18;7.2;86.5
45383;DHT22;42455;51.660;5.824;2023-03-05T00:31:26;7.2;86.5
45383;DHT22;42455;51.660;5.824;2023-03-05T00:36:30;7.2;87.0
45383;DHT22;42455;51.660;5.824;2023-03-05T00:41:36;7.2;87.0
45383;DHT22;42455;51.660;5.824;2023-03-05T00:46:43;7.1;87.0
45383;DHT22;42455;51.660;5.824;2023-03-05T00:51:49;7.1;87.0
45383;DHT22;42455;51.660;5.824;2023-03-05T00:56:55;7.2;87.0
45383;DHT22;42455;51.660;5.824;2023-03-05T01:02:01;7.1;87.0
45383;DHT22;42455;51.660;5.824;2023-03-05T01:07:08;7.1;87.0
45383;DHT22;42455;51.660;5.824;2023-03-05T01:12:13;7.1;87.0
45383;DHT22;42455;51.660;5.824;2023-03-05T01:17:20;7.1;87.0
45383;DHT22;42455;51.660;5.824;2023-03-05T01:22:26;7.1;87.0
45383;DHT22;42455;51.660;5.824;2023-03-05T01:27:32;7.1;87.0
45383;DHT22;42455;51.660;5.824;2023-03-05T01:32:38;7.1;87.5
45383;DHT22;42455;51.660;5.824;2023-03-05T01:37:45;7.0;87.5
45383;DHT22;42455;51.660;5.824;2023-03-05T01:42:58;7.0;87.5
45383;DHT22;42455;51.660;5.824;2023-03-05T01:47:56;7.0;87.0
45383;DHT22;42455;51.660;5.824;2023-03-05T01:53:04;6.9;87.5
45383;DHT22;42455;51.660;5.824;2023-03-05T01:58:10;6.9;87.5
45383;DHT22;42455;51.660;5.824;2023-03-05T02:03:14;6.9;87.5
45383;DHT22;42455;51.660;5.824;2023-03-05T02:08:21;6.9;87.5
45383;DHT22;42455;51.660;5.824;2023-03-05T02:13:30;6.9;87.5
45383;DHT22;42455;51.660;5.824;2023-03-05T02:18:33;6.9;87.5
45383;DHT22;42455;51.660;5.824;2023-03-05T02:23:39;6.9;87.5
45383;DHT22;42455;51.660;5.824;2023-03-05T02:28:53;6.9;87.5
45383;DHT22;42455;51.660;5.824;2023-03-05T02:33:52;6.8;87.5
45383;DHT22;42455;51.660;5.824;2023-03-05T02:38:57;6.8;87.5
45383;DHT22;42455;51.660;5.824;2023-03-05T02:44:04;6.8;87.5
45383;DHT22;42455;51.660;5.824;2023-03-05T02:49:09;6.8;88.0
45383;DHT22;42455;51.660;5.824;2023-03-05T02:54:16;6.8;88.0
45383;DHT22;42455;51.660;5.824;2023-03-05T02:59:22;6.8;88.0
45383;DHT22;42455;51.660;5.824;2023-03-05T03:04:28;6.8;88.0
45383;DHT22;42455;51.660;5.824;2023-03-05T03:09:35;6.7;88.0
45383;DHT22;42455;51.660;5.824;2023-03-05T03:14:42;6.7;88.0
45383;DHT22;42455;51.660;5.824;2023-03-05T03:19:47;6.7;88.0
45383;DHT22;42455;51.660;5.824;2023-03-05T03:24:53;6.7;88.0
45383;DHT22;42455;51.660;5.824;2023-03-05T03:29:59;6.7;88.0
45383;DHT22;42455;51.660;5.824;2023-03-05T03:35:06;6.7;88.0
45383;DHT22;42455;51.660;5.824;2023-03-05T03:40:12;6.7;88.5
45383;DHT22;42455;51.660;5.824;2023-03-05T03:45:17;6.7;88.5
45383;DHT22;42455;51.660;5.824;2023-03-05T03:50:23;6.7;88.5
45383;DHT22;42455;51.660;5.824;2023-03-05T03:55:28;6.6;88.5
45383;DHT22;42455;51.660;5.824;2023-03-05T04:00:35;6.6;88.5
45383;DHT22;42455;51.660;5.824;2023-03-05T04:05:41;6.6;88.5
45383;DHT22;42455;51.660;5.824;2023-03-05T04:10:47;6.6;88.5
45383;DHT22;42455;51.660;5.824;2023-03-05T04:15:53;6.6;88.5
45383;DHT22;42455;51.660;5.824;2023-03-05T04:21:00;6.6;88.5
45383;DHT22;42455;51.660;5.824;2023-03-05T04:26:06;6.5;88.5
45383;DHT22;42455;51.660;5.824;2023-03-05T04:31:12;6.5;89.0
45383;DHT22;42455;51.660;5.824;2023-03-05T04:36:18;6.5;89.0
45383;DHT22;42455;51.660;5.824;2023-03-05T04:41:24;6.5;89.5
45383;DHT22;42455;51.660;5.824;2023-03-05T04:46:30;6.5;89.5
45383;DHT22;42455;51.660;5.824;2023-03-05T04:51:37;6.5;89.5
45383;DHT22;42455;51.660;5.824;2023-03-05T04:56:43;6.5;89.5
45383;DHT22;42455;51.660;5.824;2023-03-05T05:01:49;6.5;89.5
45383;DHT22;42455;51.660;5.824;2023-03-05T05:06:56;6.5;89.5
45383;DHT22;42455;51.660;5.824;2023-03-05T05:12:02;6.5;89.5
45383;DHT22;42455;51.660;5.824;2023-03-05T05:17:08;6.5;89.5
45383;DHT22;42455;51.660;5.824;2023-03-05T05:22:14;6.5;89.5
45383;DHT22;42455;51.660;5.824;2023-03-05T05:27:20;6.5;89.5
45383;DHT22;42455;51.660;5.824;2023-03-05T05:32:26;6.5;89.5
45383;DHT22;42455;51.660;5.824;2023-03-05T05:37:33;6.5;89.5
45383;DHT22;42455;51.660;5.824;2023-03-05T05:42:38;6.5;89.5
45383;DHT22;42455;51.660;5.824;2023-03-05T05:47:43;6.5;89.5
45383;DHT22;42455;51.660;5.824;2023-03-05T05:52:50;6.5;89.5
45383;DHT22;42455;51.660;5.824;2023-03-05T05:57:54;6.5;89.5
45383;DHT22;42455;51.660;5.824;2023-03-05T06:03:01;6.5;89.5
45383;DHT22;42455;51.660;5.824;2023-03-05T06:08:07;6.5;89.5
45383;DHT22;42455;51.660;5.824;2023-03-05T06:13:13;6.5;90.0
45383;DHT22;42455;51.660;5.824;2023-03-05T06:18:19;6.5;90.0
45383;DHT22;42455;51.660;5.824;2023-03-05T06:23:26;6.5;90.0
45383;DHT22;42455;51.660;5.824;2023-03-05T06:28:33;6.5;90.0
45383;DHT22;42455;51.660;5.824;2023-03-05T06:33:39;6.4;90.0
45383;DHT22;42455;51.660;5.824;2023-03-05T06:38:45;6.4;90.0
45383;DHT22;42455;51.660;5.824;2023-03-05T06:43:50;6.4;90.0
45383;DHT22;42455;51.660;5.824;2023-03-05T06:48:57;6.4;90.0
45383;DHT22;42455;51.660;5.824;2023-03-05T06:54:04;6.4;90.0
45383;DHT22;42455;51.660;5.824;2023-03-05T06:59:09;6.5;90.0
45383;DHT22;42455;51.660;5.824;2023-03-05T07:04:14;6.5;90.0
45383;DHT22;42455;51.660;5.824;2023-03-05T07:09:20;6.5;90.0
45383;DHT22;42455;51.660;5.824;2023-03-05T07:14:26;6.5;90.5
45383;DHT22;42455;51.660;5.824;2023-03-05T07:19:33;6.5;90.5
45383;DHT22;42455;51.660;5.824;2023-03-05T07:24:39;6.5;90.5
45383;DHT22;42455;51.660;5.824;2023-03-05T07:29:45;6.6;90.5
45383;DHT22;42455;51.660;5.824;2023-03-05T07:34:51;6.6;90.5
45383;DHT22;42455;51.660;5.824;2023-03-05T07:39:58;6.6;90.5
45383;DHT22;42455;51.660;5.824;2023-03-05T07:45:03;6.7;90.5
45383;DHT22;42455;51.660;5.824;2023-03-05T07:50:10;6.7;90.5
45383;DHT22;42455;51.660;5.824;2023-03-05T07:55:14;6.8;90.5
45383;DHT22;42455;51.660;5.824;2023-03-05T08:00:21;6.8;90.5
45383;DHT22;42455;51.660;5.824;2023-03-05T08:05:27;6.9;91.0
45383;DHT22;42455;51.660;5.824;2023-03-05T08:10:33;7.0;91.0
45383;DHT22;42455;51.660;5.824;2023-03-05T08:15:39;7.0;91.0
45383;DHT22;42455;51.660;5.824;2023-03-05T08:20:46;7.1;91.0
45383;DHT22;42455;51.660;5.824;2023-03-05T08:25:51;7.2;91.0
45383;DHT22;42455;51.660;5.824;2023-03-05T08:30:58;7.2;91.0
45383;DHT22;42455;51.660;5.824;2023-03-05T08:36:04;7.3;91.0
45383;DHT22;42455;51.660;5.824;2023-03-05T08:41:10;7.3;90.5
45383;DHT22;42455;51.660;5.824;2023-03-05T08:46:16;7.4;90.5
45383;DHT22;42455;51.660;5.824;2023-03-05T08:51:24;7.4;90.5
45383;DHT22;42455;51.660;5.824;2023-03-05T08:56:29;7.4;90.5
45383;DHT22;42455;51.660;5.824;2023-03-05T09:01:35;7.5;90.5
45383;DHT22;42455;51.660;5.824;2023-03-05T09:06:41;7.5;91.0
45383;DHT22;42455;51.660;5.824;2023-03-05T09:11:48;7.7;91.0
45383;DHT22;42455;51.660;5.824;2023-03-05T09:16:54;7.8;91.0
45383;DHT22;42455;51.660;5.824;2023-03-05T09:22:00;7.9;91.0
45383;DHT22;42455;51.660;5.824;2023-03-05T09:27:06;8.0;91.0
45383;DHT22;42455;51.660;5.824;2023-03-05T09:32:12;8.1;91.0
45383;DHT22;42455;51.660;5.824;2023-03-05T09:37:18;8.2;90.5
45383;DHT22;42455;51.660;5.824;2023-03-05T09:42:44;8.3;90.5
45383;DHT22;42455;51.660;5.824;2023-03-05T09:47:53;8.4;90.0
45383;DHT22;42455;51.660;5.824;2023-03-05T09:52:40;8.4;90.0
45383;DHT22;42455;51.660;5.824;2023-03-05T09:57:44;8.4;89.5
45383;DHT22;42455;51.660;5.824;2023-03-05T10:02:51;8.4;89.5
45383;DHT22;42455;51.660;5.824;2023-03-05T10:07:57;8.4;90.0
45383;DHT22;42455;51.660;5.824;2023-03-05T10:13:04;8.5;90.0
45383;DHT22;42455;51.660;5.824;2023-03-05T10:18:36;8.6;89.5
45383;DHT22;42455;51.660;5.824;2023-03-05T10:23:24;8.6;89.0
45383;DHT22;42455;51.660;5.824;2023-03-05T10:28:21;8.6;88.5
45383;DHT22;42455;51.660;5.824;2023-03-05T10:34:03;8.6;88.0
45383;DHT22;42455;51.660;5.824;2023-03-05T10:40:05;8.5;88.0
45383;DHT22;42455;51.660;5.824;2023-03-05T10:43:48;8.4;87.5
45383;DHT22;42455;51.660;5.824;2023-03-05T10:48:50;8.2;87.5
45383;DHT22;42455;51.660;5.824;2023-03-05T10:53:54;8.0;88.0
45383;DHT22;42455;51.660;5.824;2023-03-05T10:58:56;7.9;89.0
45383;DHT22;42455;51.660;5.824;2023-03-05T11:04:03;7.9;89.5
45383;DHT22;42455;51.660;5.824;2023-03-05T11:09:24;7.9;90.0
45383;DHT22;42455;51.660;5.824;2023-03-05T11:14:24;8.1;90.5
45383;DHT22;42455;51.660;5.824;2023-03-05T11:19:24;8.2;91.0
45383;DHT22;42455;51.660;5.824;2023-03-05T11:24:27;8.3;91.0
45383;DHT22;42455;51.660;5.824;2023-03-05T11:29:33;8.4;91.0
45383;DHT22;42455;51.660;5.824;2023-03-05T11:34:39;8.5;91.0
45383;DHT22;42455;51.660;5.824;2023-03-05T11:39:44;8.6;91.0
45383;DHT22;42455;51.660;5.824;2023-03-05T11:44:54;8.7;91.0
45383;DHT22;42455;51.660;5.824;2023-03-05T11:50:02;8.8;91.0
45383;DHT22;42455;51.660;5.824;2023-03-05T11:55:25;8.9;91.0
45383;DHT22;42455;51.660;5.824;2023-03-05T12:00:15;9.0;91.0
45383;DHT22;42455;51.660;5.824;2023-03-05T12:05:15;9.1;91.0
45383;DHT22;42455;51.660;5.824;2023-03-05T12:10:24;9.2;90.5
45383;DHT22;42455;51.660;5.824;2023-03-05T12:16:06;9.3;90.5
45383;DHT22;42455;51.660;5.824;2023-03-05T12:21:05;9.4;90.5
45383;DHT22;42455;51.660;5.824;2023-03-05T12:25:48;9.5;90.0
45383;DHT22;42455;51.660;5.824;2023-03-05T12:31:27;9.5;90.0
45383;DHT22;42455;51.660;5.824;2023-03-05T12:35:52;9.6;89.5
45383;DHT22;42455;51.660;5.824;2023-03-05T12:41:38;9.7;89.0
45383;DHT22;42455;51.660;5.824;2023-03-05T12:46:25;9.7;88.5
45383;DHT22;42455;51.660;5.824;2023-03-05T12:51:11;9.8;88.5
45383;DHT22;42455;51.660;5.824;2023-03-05T12:56:21;9.9;88.5
45383;DHT22;42455;51.660;5.824;2023-03-05T13:01:51;10.0;88.5
45383;DHT22;42455;51.660;5.824;2023-03-05T13:06:31;10.1;88.0
45383;DHT22;42455;51.660;5.824;2023-03-05T13:11:37;10.2;87.5
45383;DHT22;42455;51.660;5.824;2023-03-05T13:16:41;10.2;86.5
45383;DHT22;42455;51.660;5.824;2023-03-05T13:21:56;10.2;86.5
45383;DHT22;42455;51.660;5.824;2023-03-05T13:26:54;10.3;86.5
45383;DHT22;42455;51.660;5.824;2023-03-05T13:32:01;10.3;86.0
45383;DHT22;42455;51.660;5.824;2023-03-05T13:37:14;10.3;85.5
45383;DHT22;42455;51.660;5.824;2023-03-05T13:42:18;10.3;85.0
45383;DHT22;42455;51.660;5.824;2023-03-05T13:47:19;10.3;84.5
45383;DHT22;42455;51.660;5.824;2023-03-05T13:52:26;10.3;84.5
45383;DHT22;42455;51.660;5.824;2023-03-05T13:57:42;10.4;84.5
45383;DHT22;42455;51.660;5.824;2023-03-05T14:02:35;10.4;84.0
45383;DHT22;42455;51.660;5.824;2023-03-05T14:07:45;10.4;83.5
45383;DHT22;42455;51.660;5.824;2023-03-05T14:12:50;10.4;83.5
45383;DHT22;42455;51.660;5.824;2023-03-05T14:18:06;10.4;83.0
45383;DHT22;42455;51.660;5.824;2023-03-05T14:23:01;10.4;83.0
45383;DHT22;42455;51.660;5.824;2023-03-05T14:28:26;10.4;83.0
45383;DHT22;42455;51.660;5.824;2023-03-05T14:33:13;10.4;83.0
45383;DHT22;42455;51.660;5.824;2023-03-05T14:38:22;10.5;82.5
45383;DHT22;42455;51.660;5.824;2023-03-05T14:43:25;10.5;82.0
45383;DHT22;42455;51.660;5.824;2023-03-05T14:48:31;10.4;81.5
45383;DHT22;42455;51.660;5.824;2023-03-05T14:53:44;10.4;81.5
45383;DHT22;42455;51.660;5.824;2023-03-05T14:58:44;10.3;81.0
45383;DHT22;42455;51.660;5.824;2023-03-05T15:03:50;10.3;81.0
45383;DHT22;42455;51.660;5.824;2023-03-05T15:08:56;10.3;81.0
45383;DHT22;42455;51.660;5.824;2023-03-05T15:14:02;10.2;80.5
45383;DHT22;42455;51.660;5.824;2023-03-05T15:19:10;10.2;80.5
45383;DHT22;42455;51.660;5.824;2023-03-05T15:24:15;10.2;80.5
45383;DHT22;42455;51.660;5.824;2023-03-05T15:29:21;10.1;80.0
45383;DHT22;42455;51.660;5.824;2023-03-05T15:34:27;10.1;79.5
45383;DHT22;42455;51.660;5.824;2023-03-05T15:39:32;10.0;79.5
45383;DHT22;42455;51.660;5.824;2023-03-05T15:44:38;10.0;79.5
45383;DHT22;42455;51.660;5.824;2023-03-05T15:49:45;9.9;79.5
45383;DHT22;42455;51.660;5.824;2023-03-05T15:54:50;9.9;79.5
45383;DHT22;42455;51.660;5.824;2023-03-05T15:59:56;9.8;79.5
45383;DHT22;42455;51.660;5.824;2023-03-05T16:05:03;9.7;79.5
45383;DHT22;42455;51.660;5.824;2023-03-05T16:10:11;9.7;79.5
45383;DHT22;42455;51.660;5.824;2023-03-05T16:15:17;9.6;79.5
45383;DHT22;42455;51.660;5.824;2023-03-05T16:20:22;9.6;79.5
45383;DHT22;42455;51.660;5.824;2023-03-05T16:25:27;9.5;79.5
45383;DHT22;42455;51.660;5.824;2023-03-05T16:30:33;9.5;79.5
45383;DHT22;42455;51.660;5.824;2023-03-05T16:35:40;9.4;80.0
45383;DHT22;42455;51.660;5.824;2023-03-05T16:40:46;9.3;80.0
45383;DHT22;42455;51.660;5.824;2023-03-05T16:45:52;9.2;80.0
45383;DHT22;42455;51.660;5.824;2023-03-05T16:50:59;9.2;80.0
45383;DHT22;42455;51.660;5.824;2023-03-05T16:56:06;9.1;80.5
45383;DHT22;42455;51.660;5.824;2023-03-05T17:01:13;9.0;80.5
45383;DHT22;42455;51.660;5.824;2023-03-05T17:06:20;9.0;80.5
45383;DHT22;42455;51.660;5.824;2023-03-05T17:11:23;8.9;80.5
45383;DHT22;42455;51.660;5.824;2023-03-05T17:16:29;8.9;80.5
45383;DHT22;42455;51.660;5.824;2023-03-05T17:21:36;8.8;80.5
45383;DHT22;42455;51.660;5.824;2023-03-05T17:26:42;8.7;80.5
45383;DHT22;42455;51.660;5.824;2023-03-05T17:31:49;8.7;81.0
45383;DHT22;42455;51.660;5.824;2023-03-05T17:36:54;8.6;81.0
45383;DHT22;42455;51.660;5.824;2023-03-05T17:41:59;8.6;81.0
45383;DHT22;42455;51.660;5.824;2023-03-05T17:47:06;8.5;81.0
45383;DHT22;42455;51.660;5.824;2023-03-05T17:52:11;8.5;81.0
45383;DHT22;42455;51.660;5.824;2023-03-05T17:57:17;8.4;81.0
45383;DHT22;42455;51.660;5.824;2023-03-05T18:02:23;8.4;81.0
45383;DHT22;42455;51.660;5.824;2023-03-05T18:07:29;8.3;81.5
45383;DHT22;42455;51.660;5.824;2023-03-05T18:12:36;8.3;82.0
45383;DHT22;42455;51.660;5.824;2023-03-05T18:17:43;8.2;82.0
45383;DHT22;42455;51.660;5.824;2023-03-05T18:22:48;8.2;82.0
45383;DHT22;42455;51.660;5.824;2023-03-05T18:27:54;8.2;82.0
45383;DHT22;42455;51.660;5.824;2023-03-05T18:33:01;8.2;82.0
45383;DHT22;42455;51.660;5.824;2023-03-05T18:38:07;8.1;82.0
45383;DHT22;42455;51.660;5.824;2023-03-05T18:43:13;8.1;82.0
45383;DHT22;42455;51.660;5.824;2023-03-05T18:48:19;8.1;82.5
45383;DHT22;42455;51.660;5.824;2023-03-05T18:53:25;8.1;82.5
45383;DHT22;42455;51.660;5.824;2023-03-05T18:58:31;8.0;82.5
45383;DHT22;42455;51.660;5.824;2023-03-05T19:03:38;8.0;83.0
45383;DHT22;42455;51.660;5.824;2023-03-05T19:08:44;7.9;83.0
45383;DHT22;42455;51.660;5.824;2023-03-05T19:13:51;7.9;83.0
45383;DHT22;42455;51.660;5.824;2023-03-05T19:18:56;7.9;83.5
45383;DHT22;42455;51.660;5.824;2023-03-05T19:24:02;7.9;83.5
45383;DHT22;42455;51.660;5.824;2023-03-05T19:29:09;7.8;83.5
45383;DHT22;42455;51.660;5.824;2023-03-05T19:34:16;7.8;83.5
45383;DHT22;42455;51.660;5.824;2023-03-05T19:39:20;7.7;83.5
45383;DHT22;42455;51.660;5.824;2023-03-05T19:44:26;7.6;84.0
45383;DHT22;42455;51.660;5.824;2023-03-05T19:49:32;7.5;84.5
45383;DHT22;42455;51.660;5.824;2023-03-05T19:54:38;7.5;84.5
45383;DHT22;42455;51.660;5.824;2023-03-05T19:59:44;7.4;84.5
45383;DHT22;42455;51.660;5.824;2023-03-05T20:04:53;7.4;84.5
45383;DHT22;42455;51.660;5.824;2023-03-05T20:09:56;7.2;84.5
45383;DHT22;42455;51.660;5.824;2023-03-05T20:15:03;7.1;84.5
45383;DHT22;42455;51.660;5.824;2023-03-05T20:20:14;7.0;85.0
45383;DHT22;42455;51.660;5.824;2023-03-05T20:25:16;6.9;85.5
45383;DHT22;42455;51.660;5.824;2023-03-05T20:30:21;6.9;86.0
45383;DHT22;42455;51.660;5.824;2023-03-05T20:35:28;6.8;86.0
45383;DHT22;42455;51.660;5.824;2023-03-05T20:40:34;6.8;86.5
45383;DHT22;42455;51.660;5.824;2023-03-05T20:45:40;6.7;86.5
45383;DHT22;42455;51.660;5.824;2023-03-05T20:50:46;6.7;87.0
45383;DHT22;42455;51.660;5.824;2023-03-05T20:55:52;6.7;87.0
45383;DHT22;42455;51.660;5.824;2023-03-05T21:00:59;6.7;87.5
45383;DHT22;42455;51.660;5.824;2023-03-05T21:06:05;6.7;87.5
45383;DHT22;42455;51.660;5.824;2023-03-05T21:11:11;6.7;87.5
45383;DHT22;42455;51.660;5.824;2023-03-05T21:16:19;6.7;88.0
45383;DHT22;42455;51.660;5.824;2023-03-05T21:21:23;6.7;88.0
45383;DHT22;42455;51.660;5.824;2023-03-05T21:26:29;6.7;88.0
45383;DHT22;42455;51.660;5.824;2023-03-05T21:31:36;6.6;88.0
45383;DHT22;42455;51.660;5.824;2023-03-05T21:36:41;6.6;88.5
45383;DHT22;42455;51.660;5.824;2023-03-05T21:41:47;6.6;88.5
45383;DHT22;42455;51.660;5.824;2023-03-05T21:46:53;6.6;88.5
45383;DHT22;42455;51.660;5.824;2023-03-05T21:51:59;6.6;88.5
45383;DHT22;42455;51.660;5.824;2023-03-05T21:57:09;6.5;88.5
45383;DHT22;42455;51.660;5.824;2023-03-05T22:02:13;6.5;89.0
45383;DHT22;42455;51.660;5.824;2023-03-05T22:07:18;6.5;89.0
45383;DHT22;42455;51.660;5.824;2023-03-05T22:12:23;6.5;89.5
45383;DHT22;42455;51.660;5.824;2023-03-05T22:17:30;6.5;89.5
45383;DHT22;42455;51.660;5.824;2023-03-05T22:22:36;6.5;89.5
45383;DHT22;42455;51.660;5.824;2023-03-05T22:27:42;6.5;89.5
45383;DHT22;42455;51.660;5.824;2023-03-05T22:32:48;6.4;89.5
45383;DHT22;42455;51.660;5.824;2023-03-05T22:37:55;6.5;90.0
45383;DHT22;42455;51.660;5.824;2023-03-05T22:43:01;6.5;90.0
45383;DHT22;42455;51.660;5.824;2023-03-05T22:48:08;6.4;90.0
45383;DHT22;42455;51.660;5.824;2023-03-05T22:53:13;6.4;90.0
45383;DHT22;42455;51.660;5.824;2023-03-05T22:58:19;6.4;90.0
45383;DHT22;42455;51.660;5.824;2023-03-05T23:03:26;6.4;90.0
45383;DHT22;42455;51.660;5.824;2023-03-05T23:08:32;6.4;90.0
45383;DHT22;42455;51.660;5.824;2023-03-05T23:13:39;6.4;90.0
45383;DHT22;42455;51.660;5.824;2023-03-05T23:18:44;6.4;90.0
45383;DHT22;42455;51.660;5.824;2023-03-05T23:23:50;6.4;90.5
45383;DHT22;42455;51.660;5.824;2023-03-05T23:28:57;6.4;90.5
45383;DHT22;42455;51.660;5.824;2023-03-05T23:34:03;6.4;90.5
45383;DHT22;42455;51.660;5.824;2023-03-05T23:39:08;6.4;90.5
45383;DHT22;42455;51.660;5.824;2023-03-05T23:44:14;6.3;90.0
45383;DHT22;42455;51.660;5.824;2023-03-05T23:49:19;6.3;90.5
45383;DHT22;42455;51.660;5.824;2023-03-05T23:54:25;6.3;90.5
45383;DHT22;42455;51.660;5.824;2023-03-05T23:59:31;6.2;90.5
